Saratoga-Weather Station Historical Data
 
Daily Summary for March 22, 2019 Units:  English    Metric   Both
Daily Weekly Monthly Yearly Custom
  Current: High: Low: Average:
Temperature: 37.0 °F 49.2 °F 36.1 °F 40.4 °F
Dew Point: 30.5 °F 36.5 °F 30.5 °F 34.3 °F
Humidity: 77% 100% 52% 80%
Wind Speed: 4.0mph 9.0mph 0.0mph 1mph
Wind Gust: 10.0mph 16.0mph - -
WindEast - - SE
Pressure: 29.64 in 29.64 in 29.46 in -
Precipitation: 0.23 in      
Historical Graphs
 
 
Tabular Data for March 22, 2019
Time Temperature Dew Point Pressure Wind Wind Speed Wind Gust Humidity Rainfall Rate (Hourly) solar
02:58 38.5 °F 36.4 °F 29.57 in Calm   1.0 mph 92% 0.01 in VWS V15.00 W/m2
03:04 38.3 °F 36.2 °F 29.57 in Calm   3.0 mph 92% 0.01 in VWS V15.00 W/m2
03:08 38.3 °F 36.2 °F 29.57 in Calm   1.0 mph 92% 0.02 in VWS V15.00 W/m2
03:14 38.2 °F 36.1 °F 29.57 in Calm   1.0 mph 92% 0.02 in VWS V15.00 W/m2
03:18 38.1 °F 36.3 °F 29.56 in Calm   2.0 mph 93% 0.02 in VWS V15.00 W/m2
03:24 38.1 °F 36.3 °F 29.56 in Calm     93% 0.03 in VWS V15.00 W/m2
03:28 38.0 °F 36.2 °F 29.56 in Calm     93% 0.04 in VWS V15.00 W/m2
03:34 38.0 °F 36.2 °F 29.56 in Calm     93% 0.03 in VWS V15.00 W/m2
03:38 37.9 °F 36.1 °F 29.55 in Calm     93% 0.04 in VWS V15.00 W/m2
03:44 37.8 °F 36.0 °F 29.55 in Calm   2.0 mph 93% 0.05 in VWS V15.00 W/m2
03:48 37.7 °F 35.9 °F 29.55 in Calm   1.0 mph 93% 0.06 in VWS V15.00 W/m2
03:54 37.6 °F 35.8 °F 29.55 in Calm     93% 0.07 in VWS V15.00 W/m2
03:58 37.5 °F 35.7 °F 29.54 in Calm   2.0 mph 93% 0.07 in VWS V15.00 W/m2
04:04 37.4 °F 35.6 °F 29.54 in Calm   3.0 mph 93% 0.08 in VWS V15.00 W/m2
04:08 37.4 °F 35.6 °F 29.53 in Calm     93% 0.08 in VWS V15.00 W/m2
04:14 37.3 °F 35.5 °F 29.53 in Calm   1.0 mph 93% 0.08 in VWS V15.00 W/m2
04:18 37.3 °F 35.5 °F 29.53 in Calm   1.0 mph 93% 0.08 in VWS V15.00 W/m2
04:24 37.2 °F 35.6 °F 29.52 in Calm     94% 0.08 in VWS V15.00 W/m2
04:28 37.2 °F 35.6 °F 29.52 in Calm     94% 0.08 in VWS V15.00 W/m2
04:34 37.1 °F 35.5 °F 29.52 in Calm   3.0 mph 94% 0.07 in VWS V15.00 W/m2
04:38 37.1 °F 35.5 °F 29.52 in Calm     94% 0.07 in VWS V15.00 W/m2
04:44 37.1 °F 35.5 °F 29.52 in Calm     94% 0.06 in VWS V15.00 W/m2
04:48 37.1 °F 35.5 °F 29.52 in Calm   1.0 mph 94% 0.06 in VWS V15.00 W/m2
04:54 37.1 °F 35.5 °F 29.51 in Calm   2.0 mph 94% 0.05 in VWS V15.00 W/m2
04:59 37.0 °F 35.2 °F 29.52 in Calm     93% 0.05 in VWS V15.00 W/m2
05:03 37.0 °F 35.2 °F 29.51 in Calm     93% 0.05 in VWS V15.00 W/m2
05:09 36.9 °F 35.1 °F 29.51 in Calm     93% 0.04 in VWS V15.00 W/m2
05:13 36.9 °F 35.3 °F 29.51 in Calm     94% 0.04 in VWS V15.00 W/m2
05:19 36.9 °F 35.3 °F 29.51 in Calm     94% 0.04 in VWS V15.00 W/m2
05:23 36.9 °F 35.3 °F 29.51 in Calm   1.0 mph 94% 0.03 in VWS V15.00 W/m2
05:29 36.8 °F 35.2 °F 29.51 in Calm     94% 0.04 in VWS V15.00 W/m2
05:33 36.7 °F 35.1 °F 29.51 in Calm     94% 0.05 in VWS V15.00 W/m2
05:39 36.6 °F 35.0 °F 29.51 in Calm     94% 0.05 in VWS V15.00 W/m2
05:43 36.6 °F 35.0 °F 29.51 in Calm     94% 0.05 in VWS V15.00 W/m2
05:49 36.6 °F 35.0 °F 29.51 in Calm     94% 0.05 in VWS V15.00 W/m2
05:53 36.5 °F 34.9 °F 29.51 in Calm     94% 0.05 in VWS V15.00 W/m2
05:59 36.5 °F 34.9 °F 29.51 in Calm     94% 0.05 in VWS V15.00 W/m2
06:03 36.5 °F 34.9 °F 29.51 in Calm     94% 0.04 in VWS V15.00 W/m2
06:09 36.5 °F 34.9 °F 29.51 in Calm     94% 0.04 in VWS V15.00 W/m2
06:13 36.4 °F 34.8 °F 29.51 in Calm     94% 0.04 in VWS V15.00 W/m2
06:19 36.4 °F 34.8 °F 29.51 in Calm     94% 0.04 in VWS V15.00 W/m2
06:23 36.3 °F 34.7 °F 29.51 in Calm     94% 0.04 in VWS V15.00 W/m2
06:29 36.2 °F 34.6 °F 29.51 in Calm     94% 0.03 in VWS V15.00 W/m2
06:33 36.2 °F 34.6 °F 29.51 in Calm     94% 0.03 in VWS V15.00 W/m2
06:39 36.2 °F 34.6 °F 29.51 in Calm     94% 0.02 in VWS V15.00 W/m2
06:43 36.2 °F 34.6 °F 29.51 in Calm     94% 0.02 in VWS V15.00 W/m2
06:49 36.1 °F 34.5 °F 29.51 in Calm     94% 0.02 in VWS V15.00 W/m2
06:53 36.2 °F 34.6 °F 29.51 in Calm     94% 0.02 in VWS V15.00 W/m2
06:59 36.2 °F 34.6 °F 29.51 in Calm     94% 0.01 in VWS V15.00 W/m2
07:03 36.2 °F 34.6 °F 29.51 in Calm     94% 0.01 in VWS V15.00 W/m2
07:09 36.2 °F 34.6 °F 29.51 in Calm     94% 0.01 in VWS V15.00 W/m2
07:13 36.3 °F 34.7 °F 29.51 in Calm     94% 0.01 in VWS V15.00 W/m2
07:19 36.3 °F 34.7 °F 29.52 in Calm     94% 0.00 in VWS V15.00 W/m2
07:23 36.3 °F 34.7 °F 29.52 in Calm     94% 0.00 in VWS V15.00 W/m2
07:29 36.4 °F 34.8 °F 29.52 in Calm     94% 0.00 in VWS V15.00 W/m2
07:33 36.4 °F 34.8 °F 29.52 in Calm     94% 0.00 in VWS V15.00 W/m2
07:39 36.4 °F 34.8 °F 29.52 in Calm     94% 0.00 in VWS V15.00 W/m2
07:43 36.4 °F 34.8 °F 29.52 in Calm     94% 0.00 in VWS V15.00 W/m2
07:49 36.5 °F 34.9 °F 29.52 in Calm     94% 0.00 in VWS V15.00 W/m2
07:53 36.5 °F 36.5 °F 29.52 in Calm     100% 0.00 in VWS V15.00 W/m2
07:59 36.6 °F 35.3 °F 29.52 in Calm     95% 0.00 in VWS V15.00 W/m2
08:03 36.6 °F 35.3 °F 29.52 in Calm     95% 0.00 in VWS V15.00 W/m2
08:09 36.7 °F 35.4 °F 29.52 in Calm     95% 0.00 in VWS V15.00 W/m2
08:13 36.7 °F 35.4 °F 29.52 in Calm   1.0 mph 95% 0.00 in VWS V15.00 W/m2
08:19 36.8 °F 35.5 °F 29.52 in Calm     95% 0.00 in VWS V15.00 W/m2
08:23 36.8 °F 35.5 °F 29.52 in Calm     95% 0.00 in VWS V15.00 W/m2
08:29 36.9 °F 35.6 °F 29.52 in Calm     95% 0.00 in VWS V15.00 W/m2
08:33 37.0 °F 35.7 °F 29.52 in Calm     95% 0.00 in VWS V15.00 W/m2
08:39 37.1 °F 35.8 °F 29.52 in Calm     95% 0.00 in VWS V15.00 W/m2
08:43 37.2 °F 35.9 °F 29.52 in Calm     95% 0.00 in VWS V15.00 W/m2
08:49 37.3 °F 36.0 °F 29.52 in Calm   1.0 mph 95% 0.00 in VWS V15.00 W/m2
08:53 37.3 °F 36.0 °F 29.52 in North 2.0 mph 2.0 mph 95% 0.00 in VWS V15.00 W/m2
08:59 37.6 °F 36.3 °F 29.52 in Calm   4.0 mph 95% 0.00 in VWS V15.00 W/m2
09:03 37.7 °F 36.4 °F 29.52 in Calm   4.0 mph 95% 0.00 in VWS V15.00 W/m2
09:09 37.9 °F 36.3 °F 29.52 in Calm   4.0 mph 94% 0.00 in VWS V15.00 W/m2
09:13 38.1 °F 36.3 °F 29.52 in Calm   3.0 mph 93% 0.00 in VWS V15.00 W/m2
09:19 38.3 °F 36.2 °F 29.52 in Calm   3.0 mph 92% 0.00 in VWS V15.00 W/m2
09:23 38.3 °F 36.2 °F 29.53 in Calm     92% 0.00 in VWS V15.00 W/m2
09:29 38.4 °F 36.0 °F 29.53 in Calm   3.0 mph 91% 0.00 in VWS V15.00 W/m2
09:33 38.5 °F 36.1 °F 29.53 in Calm   3.0 mph 91% 0.00 in VWS V15.00 W/m2
09:39 38.5 °F 35.8 °F 29.53 in Calm   3.0 mph 90% 0.00 in VWS V15.00 W/m2
09:43 38.6 °F 35.9 °F 29.53 in Calm   1.0 mph 90% 0.00 in VWS V15.00 W/m2
09:49 38.7 °F 35.7 °F 29.53 in Calm   3.0 mph 89% 0.00 in VWS V15.00 W/m2
09:53 38.7 °F 35.5 °F 29.53 in NNE 2.0 mph 4.0 mph 88% 0.00 in VWS V15.00 W/m2
09:59 38.9 °F 35.4 °F 29.53 in NE 2.0 mph 3.0 mph 87% 0.00 in VWS V15.00 W/m2
10:03 39.1 °F 35.3 °F 29.53 in North 1.0 mph 5.0 mph 86% 0.00 in VWS V15.00 W/m2
10:09 39.2 °F 35.1 °F 29.52 in Calm   6.0 mph 85% 0.00 in VWS V15.00 W/m2
10:13 39.3 °F 34.9 °F 29.52 in NNE 1.0 mph 5.0 mph 84% 0.00 in VWS V15.00 W/m2
10:19 39.5 °F 35.1 °F 29.52 in Calm   3.0 mph 84% 0.00 in VWS V15.00 W/m2
10:23 39.6 °F 34.9 °F 29.52 in Calm   5.0 mph 83% 0.00 in VWS V15.00 W/m2
10:29 39.7 °F 35.0 °F 29.52 in Calm   2.0 mph 83% 0.00 in VWS V15.00 W/m2
10:33 39.7 °F 34.7 °F 29.53 in Calm   1.0 mph 82% 0.00 in VWS V15.00 W/m2
10:37 39.7 °F 35.0 °F 29.53 in Calm   1.0 mph 83% 0.00 in VWS V15.00 W/m2
10:44 39.7 °F 35.3 °F 29.53 in West 2.0 mph 2.0 mph 84% 0.00 in VWS V15.00 W/m2
10:48 39.7 °F 35.0 °F 29.53 in North 2.0 mph 2.0 mph 83% 0.00 in VWS V15.00 W/m2
10:54 39.8 °F 34.8 °F 29.53 in Calm   3.0 mph 82% 0.00 in VWS V15.00 W/m2
10:58 39.9 °F 34.5 °F 29.53 in NNE 1.0 mph 3.0 mph 81% 0.00 in VWS V15.00 W/m2
11:04 39.9 °F 34.5 °F 29.53 in WNW 2.0 mph 4.0 mph 81% 0.00 in VWS V15.00 W/m2
11:08 39.8 °F 34.5 °F 29.53 in Calm   5.0 mph 81% 0.00 in VWS V15.00 W/m2
11:14 39.8 °F 34.5 °F 29.52 in NNE 1.0 mph 7.0 mph 81% 0.00 in VWS V15.00 W/m2
11:18 39.8 °F 34.5 °F 29.53 in Calm   1.0 mph 81% 0.00 in VWS V15.00 W/m2
11:24 39.7 °F 34.0 °F 29.52 in Calm   2.0 mph 80% 0.00 in VWS V15.00 W/m2
11:28 39.7 °F 34.0 °F 29.52 in Calm   4.0 mph 80% 0.00 in VWS V15.00 W/m2
11:34 39.7 °F 34.0 °F 29.52 in Calm   3.0 mph 80% 0.00 in VWS V15.00 W/m2
11:38 39.7 °F 34.4 °F 29.53 in Calm   1.0 mph 81% 0.00 in VWS V15.00 W/m2
11:44 39.8 °F 34.5 °F 29.52 in NE 1.0 mph 2.0 mph 81% 0.00 in VWS V15.00 W/m2
11:48 39.9 °F 34.5 °F 29.53 in WSW 1.0 mph 3.0 mph 81% 0.00 in VWS V15.00 W/m2
11:54 40.2 °F 34.2 °F 29.52 in ENE 3.0 mph 4.0 mph 79% 0.00 in VWS V15.00 W/m2
11:58 40.4 °F 34.1 °F 29.52 in SSW 4.0 mph 4.0 mph 78% 0.00 in VWS V15.00 W/m2
12:03 40.6 °F 34.3 °F 29.52 in Calm   3.0 mph 78% 0.00 in VWS V15.00 W/m2
12:09 40.8 °F 34.2 °F 29.52 in Calm   6.0 mph 77% 0.00 in VWS V15.00 W/m2
12:13 40.8 °F 34.2 °F 29.52 in ESE 2.0 mph 11.0 mph 77% 0.00 in VWS V15.00 W/m2
12:19 41.1 °F 34.8 °F 29.52 in NNW 1.0 mph 10.0 mph 78% 0.00 in VWS V15.00 W/m2
12:23 41.5 °F 35.2 °F 29.52 in Calm   3.0 mph 78% 0.00 in VWS V15.00 W/m2
12:29 42.4 °F 35.7 °F 29.52 in NNE 1.0 mph 5.0 mph 77% 0.00 in VWS V15.00 W/m2
12:33 42.7 °F 35.3 °F 29.51 in Calm   4.0 mph 75% 0.00 in VWS V15.00 W/m2
12:39 42.8 °F 35.1 °F 29.52 in WNW 2.0 mph 5.0 mph 74% 0.00 in VWS V15.00 W/m2
12:43 42.8 °F 35.1 °F 29.52 in WSW 2.0 mph 6.0 mph 74% 0.00 in VWS V15.00 W/m2
12:49 42.7 °F 34.3 °F 29.51 in NNE 2.0 mph 5.0 mph 72% 0.00 in VWS V15.00 W/m2
12:53 42.5 °F 33.8 °F 29.51 in Calm   7.0 mph 71% 0.00 in VWS V15.00 W/m2
12:59 42.5 °F 33.4 °F 29.51 in NE 2.0 mph 12.0 mph 70% 0.00 in VWS V15.00 W/m2
13:03 42.6 °F 33.9 °F 29.51 in Calm   5.0 mph 71% 0.00 in VWS V15.00 W/m2
13:09 42.7 °F 34.0 °F 29.51 in West 1.0 mph 10.0 mph 71% 0.00 in VWS V15.00 W/m2
13:13 42.8 °F 34.4 °F 29.50 in Calm   4.0 mph 72% 0.00 in VWS V15.00 W/m2
13:19 43.0 °F 33.9 °F 29.51 in NNW 2.0 mph 6.0 mph 70% 0.00 in VWS V15.00 W/m2
13:23 43.3 °F 34.2 °F 29.51 in West 3.0 mph 3.0 mph 70% 0.00 in VWS V15.00 W/m2
13:29 43.7 °F 33.5 °F 29.50 in Calm   7.0 mph 67% 0.00 in VWS V15.00 W/m2
13:33 43.8 °F 33.2 °F 29.50 in Calm   10.0 mph 66% 0.00 in VWS V15.00 W/m2
13:39 44.1 °F 34.2 °F 29.50 in East 1.0 mph 5.0 mph 68% 0.00 in VWS V15.00 W/m2
13:43 44.1 °F 34.2 °F 29.50 in East 4.0 mph 4.0 mph 68% 0.00 in VWS V15.00 W/m2
13:49 45.1 °F 35.2 °F 29.50 in Calm   12.0 mph 68% 0.00 in VWS V15.00 W/m2
13:53 45.6 °F 35.3 °F 29.50 in ENE 3.0 mph 8.0 mph 67% 0.00 in VWS V15.00 W/m2
13:59 46.5 °F 35.4 °F 29.49 in NNE 6.0 mph 9.0 mph 65% 0.00 in VWS V15.00 W/m2
14:03 46.6 °F 33.5 °F 29.49 in NE 5.0 mph 11.0 mph 60% 0.00 in VWS V15.00 W/m2
14:09 45.8 °F 33.5 °F 29.49 in NNE 4.0 mph 7.0 mph 62% 0.00 in VWS V15.00 W/m2
14:13 45.4 °F 34.0 °F 29.49 in ESE 3.0 mph 9.0 mph 64% 0.00 in VWS V15.00 W/m2
14:19 44.9 °F 34.2 °F 29.49 in West 4.0 mph 5.0 mph 66% 0.00 in VWS V15.00 W/m2
14:23 44.9 °F 34.6 °F 29.49 in WNW 1.0 mph 10.0 mph 67% 0.00 in VWS V15.00 W/m2
14:29 45.5 °F 34.8 °F 29.49 in NW 2.0 mph 9.0 mph 66% 0.00 in VWS V15.00 W/m2
14:33 45.7 °F 33.8 °F 29.48 in North 3.0 mph 10.0 mph 63% 0.00 in VWS V15.00 W/m2
14:39 46.0 °F 33.7 °F 29.48 in NE 1.0 mph 9.0 mph 62% 0.00 in VWS V15.00 W/m2
14:43 46.0 °F 33.3 °F 29.48 in North 2.0 mph 10.0 mph 61% 0.00 in VWS V15.00 W/m2
14:49 46.0 °F 33.3 °F 29.48 in South 2.0 mph 12.0 mph 61% 0.00 in VWS V15.00 W/m2
14:53 46.2 °F 34.3 °F 29.48 in Calm   6.0 mph 63% 0.00 in VWS V15.00 W/m2
14:59 47.3 °F 36.1 °F 29.48 in SE 2.0 mph 10.0 mph 65% 0.00 in VWS V15.00 W/m2
15:03 47.9 °F 35.9 °F 29.48 in NW 2.0 mph 14.0 mph 63% 0.00 in VWS V15.00 W/m2
15:09 48.1 °F 35.3 °F 29.47 in WNW 9.0 mph 16.0 mph 61% 0.00 in VWS V15.00 W/m2
15:13 48.3 °F 35.9 °F 29.47 in ENE 2.0 mph 8.0 mph 62% 0.00 in VWS V15.00 W/m2
15:19 49.0 °F 34.9 °F 29.46 in South 1.0 mph 11.0 mph 58% 0.00 in VWS V15.00 W/m2
15:23 49.2 °F 34.2 °F 29.47 in SSE 6.0 mph 10.0 mph 56% 0.00 in VWS V15.00 W/m2
15:29 48.5 °F 34.4 °F 29.47 in NE 3.0 mph 10.0 mph 58% 0.00 in VWS V15.00 W/m2
15:33 48.5 °F 33.5 °F 29.46 in NNW 3.0 mph 15.0 mph 56% 0.00 in VWS V15.00 W/m2
15:39 48.6 °F 34.9 °F 29.47 in NE 2.0 mph 10.0 mph 59% 0.00 in VWS V15.00 W/m2
15:43 48.3 °F 33.4 °F 29.47 in ENE 7.0 mph 12.0 mph 56% 0.00 in VWS V15.00 W/m2
15:49 47.8 °F 34.2 °F 29.47 in NE 3.0 mph 14.0 mph 59% 0.00 in VWS V15.00 W/m2
15:53 48.0 °F 34.8 °F 29.47 in WNW 1.0 mph 10.0 mph 60% 0.00 in VWS V15.00 W/m2
15:59 48.3 °F 33.8 °F 29.47 in SW 3.0 mph 6.0 mph 57% 0.00 in VWS V15.00 W/m2
16:03 48.5 °F 35.7 °F 29.46 in NE 1.0 mph 4.0 mph 61% 0.00 in VWS V15.00 W/m2
16:09 48.3 °F 34.6 °F 29.47 in NNE 3.0 mph 7.0 mph 59% 0.00 in VWS V15.00 W/m2
16:13 48.5 °F 36.5 °F 29.47 in Calm   9.0 mph 63% 0.00 in VWS V15.00 W/m2
16:19 49.0 °F 35.3 °F 29.47 in NE 3.0 mph 6.0 mph 59% 0.00 in VWS V15.00 W/m2
16:23 48.6 °F 31.8 °F 29.47 in NE 1.0 mph 11.0 mph 52% 0.00 in VWS V15.00 W/m2
16:29 47.7 °F 30.9 °F 29.47 in WSW 4.0 mph 11.0 mph 52% 0.00 in VWS V15.00 W/m2
16:33 47.0 °F 31.2 °F 29.48 in SW 1.0 mph 9.0 mph 54% 0.00 in VWS V15.00 W/m2
16:39 46.0 °F 30.8 °F 29.48 in WNW 1.0 mph 9.0 mph 55% 0.00 in VWS V15.00 W/m2
16:43 46.0 °F 32.1 °F 29.48 in SW 1.0 mph 7.0 mph 58% 0.00 in VWS V15.00 W/m2
16:49 46.8 °F 33.2 °F 29.47 in Calm   12.0 mph 59% 0.00 in VWS V15.00 W/m2
16:53 47.0 °F 32.6 °F 29.48 in Calm   11.0 mph 57% 0.00 in VWS V15.00 W/m2
16:59 46.6 °F 31.3 °F 29.48 in ESE 1.0 mph 12.0 mph 55% 0.00 in VWS V15.00 W/m2
17:03 46.6 °F 32.2 °F 29.48 in NNE 6.0 mph 10.0 mph 57% 0.00 in VWS V15.00 W/m2
17:09 47.2 °F 33.2 °F 29.49 in ENE 2.0 mph 5.0 mph 58% 0.00 in VWS V15.00 W/m2
17:14 46.7 °F 33.6 °F 29.49 in South 2.0 mph 9.0 mph 60% 0.00 in VWS V15.00 W/m2
17:20 45.1 °F 33.3 °F 29.51 in SW 3.0 mph 16.0 mph 63% 0.00 in VWS V15.00 W/m2
17:23 43.8 °F 33.9 °F 29.51 in NE 2.0 mph 11.0 mph 68% 0.00 in VWS V15.00 W/m2
17:28 42.6 °F 34.9 °F 29.52 in NE 3.0 mph 6.0 mph 74% 0.00 in VWS V15.00 W/m2
17:33 41.3 °F 34.6 °F 29.52 in Calm   5.0 mph 77% 0.00 in VWS V15.00 W/m2
17:38 40.8 °F 34.5 °F 29.52 in Calm   5.0 mph 78% 0.00 in VWS V15.00 W/m2
17:44 40.6 °F 34.6 °F 29.52 in Calm   3.0 mph 79% 0.00 in VWS V15.00 W/m2
17:48 40.6 °F 34.6 °F 29.52 in NW 3.0 mph 8.0 mph 79% 0.00 in VWS V15.00 W/m2
17:54 40.6 °F 34.3 °F 29.52 in ENE 1.0 mph 7.0 mph 78% 0.00 in VWS V15.00 W/m2
17:58 40.5 °F 33.5 °F 29.52 in Calm   4.0 mph 76% 0.00 in VWS V15.00 W/m2
18:04 40.4 °F 33.1 °F 29.53 in Calm   6.0 mph 75% 0.00 in VWS V15.00 W/m2
18:08 40.4 °F 33.5 °F 29.53 in Calm   3.0 mph 76% 0.00 in VWS V15.00 W/m2
18:14 40.4 °F 33.1 °F 29.53 in Calm   5.0 mph 75% 0.00 in VWS V15.00 W/m2
18:18 40.4 °F 33.1 °F 29.54 in West 1.0 mph 6.0 mph 75% 0.00 in VWS V15.00 W/m2
18:24 40.4 °F 32.8 °F 29.54 in WSW 3.0 mph 6.0 mph 74% 0.00 in VWS V15.00 W/m2
18:28 40.4 °F 33.1 °F 29.54 in ENE 1.0 mph 4.0 mph 75% 0.00 in VWS V15.00 W/m2
18:34 40.3 °F 32.4 °F 29.54 in ENE 4.0 mph 4.0 mph 73% 0.00 in VWS V15.00 W/m2
18:38 40.2 °F 31.9 °F 29.54 in Calm   10.0 mph 72% 0.00 in VWS V15.00 W/m2
18:44 40.2 °F 32.6 °F 29.55 in NE 4.0 mph 6.0 mph 74% 0.00 in VWS V15.00 W/m2
18:48 40.2 °F 31.9 °F 29.55 in NE 1.0 mph 8.0 mph 72% 0.00 in VWS V15.00 W/m2
18:54 40.2 °F 31.9 °F 29.55 in NNW 5.0 mph 5.0 mph 72% 0.00 in VWS V15.00 W/m2
18:58 40.3 °F 31.7 °F 29.55 in Calm   5.0 mph 71% 0.00 in VWS V15.00 W/m2
19:04 40.2 °F 31.9 °F 29.56 in Calm   4.0 mph 72% 0.00 in VWS V15.00 W/m2
19:08 40.1 °F 31.8 °F 29.56 in Calm   3.0 mph 72% 0.00 in VWS V15.00 W/m2
19:14 40.0 °F 31.7 °F 29.56 in NE 4.0 mph 8.0 mph 72% 0.00 in VWS V15.00 W/m2
19:18 39.9 °F 31.6 °F 29.57 in Calm   7.0 mph 72% 0.00 in VWS V15.00 W/m2
19:24 39.7 °F 31.8 °F 29.57 in West 3.0 mph 3.0 mph 73% 0.00 in VWS V15.00 W/m2
19:28 39.6 °F 32.0 °F 29.57 in Calm   4.0 mph 74% 0.00 in VWS V15.00 W/m2
19:34 39.3 °F 32.4 °F 29.57 in Calm   5.0 mph 76% 0.00 in VWS V15.00 W/m2
19:38 39.2 °F 31.9 °F 29.57 in Calm   7.0 mph 75% 0.00 in VWS V15.00 W/m2
19:44 39.1 °F 31.9 °F 29.58 in South 1.0 mph 4.0 mph 75% 0.00 in VWS V15.00 W/m2
19:48 39.0 °F 32.1 °F 29.58 in East 3.0 mph 4.0 mph 76% 0.00 in VWS V15.00 W/m2
19:54 39.0 °F 31.4 °F 29.59 in Calm   5.0 mph 74% 0.00 in VWS V15.00 W/m2
19:58 38.9 °F 31.0 °F 29.59 in SW 2.0 mph 6.0 mph 73% 0.00 in VWS V15.00 W/m2
20:04 38.9 °F 31.0 °F 29.59 in Calm   4.0 mph 73% 0.00 in VWS V15.00 W/m2
20:08 38.8 °F 30.9 °F 29.59 in WNW 3.0 mph 9.0 mph 73% 0.00 in VWS V15.00 W/m2
20:14 38.8 °F 31.2 °F 29.60 in North 1.0 mph 7.0 mph 74% 0.00 in VWS V15.00 W/m2
20:18 38.8 °F 31.2 °F 29.60 in West 2.0 mph 13.0 mph 74% 0.00 in VWS V15.00 W/m2
20:24 38.7 °F 31.8 °F 29.61 in NNE 1.0 mph 6.0 mph 76% 0.00 in VWS V15.00 W/m2
20:28 38.5 °F 31.6 °F 29.61 in ENE 7.0 mph 7.0 mph 76% 0.00 in VWS V15.00 W/m2
20:34 38.2 °F 31.6 °F 29.62 in NE 7.0 mph 9.0 mph 77% 0.00 in VWS V15.00 W/m2
20:38 37.9 °F 31.4 °F 29.62 in Calm   12.0 mph 77% 0.00 in VWS V15.00 W/m2
20:44 37.6 °F 31.1 °F 29.62 in East 2.0 mph 9.0 mph 77% 0.00 in VWS V15.00 W/m2
20:48 37.5 °F 31.3 °F 29.63 in NNE 1.0 mph 5.0 mph 78% 0.00 in VWS V15.00 W/m2
20:54 37.2 °F 30.7 °F 29.63 in Calm   8.0 mph 77% 0.00 in VWS V15.00 W/m2
20:58 37.0 °F 30.5 °F 29.64 in East 4.0 mph 10.0 mph 77% 0.00 in VWS V15.00 W/m2
Liberty Hills, Hanover Township, Pennsylvania, USA
Compliments of Weather Underground - 5.5 mb